Time;durP1;ratioP1;P1;durP2;ratioP2;P2;SDS_P1;SDS_P2;PMS_P1;PMS_P2;Temp;Humidity;BMP_temperature;BMP_pressure;BME280_temperature;BME280_humidity;BME280_pressure;Samples;Min_cycle;Max_cycle;Signal;HPM_P1;HPM_P2
2021/05/03 00:00:20;;;;;;;12.40;2.97;;;;;;;28.51;21.75;100883.03;5110960;28;20043;-65
2021/05/03 00:02:48;;;;;;;19.13;3.33;;;;;;;28.53;21.53;100881.09;5111355;28;20046;-65
2021/05/03 00:05:25;;;;;;;15.48;3.15;;;;;;;28.59;21.38;100876.28;5111340;28;20123;-64
2021/05/03 00:07:52;;;;;;;19.83;3.08;;;;;;;28.54;21.19;100882.88;5111529;28;20039;-65
2021/05/03 00:10:21;;;;;;;18.30;3.75;;;;;;;28.50;21.42;100881.25;5110423;28;20043;-64
2021/05/03 00:12:48;;;;;;;13.95;2.35;;;;;;;28.46;21.52;100879.69;5112052;28;20046;-64
2021/05/03 00:15:17;;;;;;;16.77;3.25;;;;;;;28.46;21.50;100881.53;5111643;28;20039;-64
2021/05/03 00:17:44;;;;;;;17.35;2.67;;;;;;;28.47;21.33;100880.59;5111209;28;20046;-65
2021/05/03 00:20:13;;;;;;;14.57;3.17;;;;;;;28.45;21.40;100886.09;5111792;28;20402;-65
2021/05/03 00:22:40;;;;;;;15.43;3.10;;;;;;;28.44;21.26;100895.19;5111262;28;20119;-65
2021/05/03 00:25:08;;;;;;;13.52;3.28;;;;;;;28.43;21.29;100887.13;5109930;28;20093;-65
2021/05/03 00:27:36;;;;;;;15.43;2.70;;;;;;;28.37;21.67;100890.19;5111410;28;20051;-65
2021/05/03 00:30:04;;;;;;;13.70;2.80;;;;;;;28.30;21.71;100886.94;5110686;28;20036;-64
2021/05/03 00:32:31;;;;;;;11.30;3.08;;;;;;;28.26;21.86;100889.94;5111085;28;20517;-65
2021/05/03 00:34:59;;;;;;;13.05;2.60;;;;;;;28.24;21.77;100881.84;5110770;28;20047;-65
2021/05/03 00:37:27;;;;;;;14.70;2.45;;;;;;;28.22;21.92;100886.53;5111218;28;20034;-65
2021/05/03 00:39:54;;;;;;;10.80;3.00;;;;;;;28.18;22.02;100881.31;5111056;28;20063;-65
2021/05/03 00:42:21;;;;;;;21.15;3.50;;;;;;;28.15;22.13;100876.97;5110596;28;20063;-65
2021/05/03 00:44:50;;;;;;;21.67;3.72;;;;;;;28.16;22.14;100884.13;5111102;28;20495;-65
2021/05/03 00:47:18;;;;;;;16.70;2.92;;;;;;;28.13;22.06;100876.13;5099237;28;20119;-65
2021/05/03 00:49:45;;;;;;;15.02;3.40;;;;;;;28.11;22.04;100880.75;5110896;28;20067;-65
2021/05/03 00:52:12;;;;;;;15.65;2.78;;;;;;;28.06;22.50;100891.00;5093489;28;20031;-65
2021/05/03 00:54:41;;;;;;;13.93;3.03;;;;;;;27.93;23.09;100879.06;5108683;28;20123;-65
2021/05/03 00:57:09;;;;;;;14.52;2.42;;;;;;;27.86;22.69;100880.34;5109384;28;20036;-65
2021/05/03 00:59:36;;;;;;;16.73;3.85;;;;;;;27.80;22.99;100881.56;5110126;28;20054;-65
2021/05/03 01:02:04;;;;;;;16.80;2.92;;;;;;;27.62;23.53;100869.84;5110805;28;20123;-65
2021/05/03 01:04:31;;;;;;;19.17;3.50;;;;;;;27.48;23.93;100880.53;5110634;28;20088;-65
2021/05/03 01:06:58;;;;;;;18.60;2.65;;;;;;;27.44;23.78;100878.06;5110153;28;20040;-65
2021/05/03 01:09:26;;;;;;;11.38;2.72;;;;;;;27.44;24.10;100875.34;5110153;28;20065;-65
2021/05/03 01:11:54;;;;;;;13.82;2.33;;;;;;;27.36;24.13;100873.91;5110070;28;20090;-65
2021/05/03 01:14:22;;;;;;;14.70;2.60;;;;;;;27.42;23.94;100879.97;5110923;28;20043;-65
2021/05/03 01:16:49;;;;;;;11.40;2.90;;;;;;;27.37;23.75;100872.09;5110766;28;20031;-65
2021/05/03 01:19:19;;;;;;;13.70;3.22;;;;;;;27.35;23.94;100868.56;5110424;28;20387;-65
2021/05/03 01:21:48;;;;;;;12.75;3.20;;;;;;;27.29;24.10;100866.16;5110447;28;20059;-65
2021/05/03 01:24:15;;;;;;;16.25;3.08;;;;;;;27.20;24.24;100853.97;5109500;28;20111;-64
2021/05/03 01:26:42;;;;;;;17.33;3.53;;;;;;;27.15;24.41;100858.75;5110587;28;20043;-65
2021/05/03 01:29:11;;;;;;;16.42;3.70;;;;;;;27.13;24.00;100854.34;5110526;28;20578;-64
2021/05/03 01:31:38;;;;;;;17.83;2.72;;;;;;;27.19;24.04;100856.75;5110651;28;20128;-64
2021/05/03 01:34:06;;;;;;;14.32;2.63;;;;;;;27.21;24.00;100850.28;5110233;28;20044;-64
2021/05/03 01:36:36;;;;;;;18.58;3.20;;;;;;;27.17;24.23;100848.72;5110539;28;20444;-64
2021/05/03 01:39:07;;;;;;;11.02;2.22;;;;;;;27.12;24.35;100848.06;5110759;28;20380;-64
2021/05/03 01:41:35;;;;;;;13.15;3.42;;;;;;;27.09;24.05;100852.75;5110202;28;20496;-64
2021/05/03 01:44:03;;;;;;;16.52;2.85;;;;;;;27.12;24.26;100856.19;5110780;28;20043;-65
2021/05/03 01:46:32;;;;;;;20.20;4.03;;;;;;;27.11;23.86;100849.00;5110472;28;20446;-64
2021/05/03 01:49:00;;;;;;;11.70;2.03;;;;;;;27.09;24.16;100844.63;5110616;28;20123;-65
2021/05/03 01:51:27;;;;;;;12.27;3.55;;;;;;;27.02;24.28;100843.19;5110666;28;20032;-65
2021/05/03 01:53:55;;;;;;;15.57;3.47;;;;;;;27.04;24.52;100846.72;5109929;28;20055;-64
2021/05/03 01:56:24;;;;;;;14.60;2.60;;;;;;;26.98;24.36;100843.34;5110237;28;20518;-65
2021/05/03 01:58:52;;;;;;;19.70;2.70;;;;;;;26.92;24.37;100843.66;5111003;28;20039;-65
2021/05/03 02:01:19;;;;;;;15.15;2.75;;;;;;;26.91;24.65;100835.63;5110082;28;20036;-65
2021/05/03 02:03:47;;;;;;;17.33;3.17;;;;;;;26.89;24.54;100841.13;5110247;28;20122;-64
2021/05/03 02:06:15;;;;;;;13.30;3.38;;;;;;;26.77;24.60;100833.56;5110326;28;20145;-66
2021/05/03 02:08:43;;;;;;;14.57;2.55;;;;;;;26.65;24.80;100836.88;5128729;28;20074;-64
2021/05/03 02:11:11;;;;;;;12.18;2.38;;;;;;;26.64;25.14;100829.72;5122835;28;20039;-65
2021/05/03 02:13:39;;;;;;;13.00;2.40;;;;;;;26.63;25.31;100835.22;5110303;28;20066;-65
2021/05/03 02:16:07;;;;;;;13.88;2.67;;;;;;;26.62;24.93;100833.44;5110505;28;20044;-64
2021/05/03 02:18:35;;;;;;;13.70;2.97;;;;;;;26.62;24.87;100831.63;5109433;28;20165;-65
2021/05/03 02:21:02;;;;;;;20.63;3.00;;;;;;;26.61;25.07;100829.84;5113406;28;20082;-65
2021/05/03 02:23:29;;;;;;;12.55;2.92;;;;;;;26.64;24.66;100827.00;5112372;28;20118;-65
2021/05/03 02:25:56;;;;;;;15.55;3.00;;;;;;;26.68;24.72;100828.59;5114346;28;20127;-64
2021/05/03 02:28:24;;;;;;;13.32;2.50;;;;;;;26.64;24.85;100824.31;5113426;28;20031;-65
2021/05/03 02:30:52;;;;;;;15.15;2.83;;;;;;;26.64;24.93;100826.13;5113561;28;20654;-65
2021/05/03 02:33:19;;;;;;;13.32;2.72;;;;;;;26.57;24.89;100818.31;5112676;28;20039;-66
2021/05/03 02:35:46;;;;;;;15.02;2.95;;;;;;;26.54;24.92;100826.56;5113578;28;20066;-65
2021/05/03 02:38:13;;;;;;;11.73;2.83;;;;;;;26.51;24.92;100825.88;5113817;28;20044;-65
2021/05/03 02:40:40;;;;;;;12.60;2.40;;;;;;;26.51;24.88;100821.34;5113825;28;20042;-65
2021/05/03 02:43:08;;;;;;;14.77;3.72;;;;;;;26.51;24.71;100823.16;5112610;28;20043;-65
2021/05/03 02:45:36;;;;;;;15.40;3.38;;;;;;;26.53;25.00;100829.34;5112925;28;20192;-65
2021/05/03 02:48:05;;;;;;;13.18;2.35;;;;;;;26.45;25.08;100835.13;5112704;28;20043;-66
2021/05/03 02:50:33;;;;;;;17.00;3.47;;;;;;;26.41;25.04;100828.13;5113036;28;20082;-65
2021/05/03 02:53:00;;;;;;;15.18;2.80;;;;;;;26.35;25.29;100831.13;5094501;28;20077;-64
2021/05/03 02:55:28;;;;;;;11.95;2.50;;;;;;;26.35;25.10;100831.13;5113396;28;20035;-64
2021/05/03 02:57:55;;;;;;;13.43;2.75;;;;;;;26.32;25.58;100836.69;5112515;28;20514;-65
2021/05/03 03:00:25;;;;;;;13.73;2.72;;;;;;;26.25;25.88;100837.97;5120513;27;20042;-64
2021/05/03 03:02:52;;;;;;;11.15;2.67;;;;;;;26.13;25.87;100833.97;5131824;27;20138;-65
2021/05/03 03:05:22;;;;;;;13.90;2.45;;;;;;;26.05;26.09;100830.75;5132968;27;20433;-64
2021/05/03 03:07:50;;;;;;;14.63;2.97;;;;;;;25.99;25.93;100831.03;5134049;27;20038;-65
2021/05/03 03:10:17;;;;;;;15.00;2.55;;;;;;;26.01;26.18;100834.53;5133113;27;20035;-64
2021/05/03 03:12:45;;;;;;;14.63;2.90;;;;;;;26.01;26.06;100831.84;5118287;27;20086;-64
2021/05/03 03:15:16;;;;;;;16.23;3.17;;;;;;;26.00;26.00;100831.91;5113114;28;20411;-65
2021/05/03 03:17:47;;;;;;;8.15;2.53;;;;;;;25.92;26.08;100835.00;5112236;28;20047;-65
2021/05/03 03:20:15;;;;;;;15.35;2.45;;;;;;;25.75;26.64;100837.56;5113934;27;20043;-64
2021/05/03 03:22:44;;;;;;;13.75;3.83;;;;;;;25.52;26.71;100841.31;5131703;27;20051;-65
2021/05/03 03:25:11;;;;;;;16.55;2.83;;;;;;;25.53;26.56;100842.19;5131954;27;20091;-65
2021/05/03 03:27:39;;;;;;;16.45;3.38;;;;;;;25.56;26.44;100836.63;5127422;27;20059;-64
2021/05/03 03:30:07;;;;;;;14.63;3.13;;;;;;;25.62;26.38;100837.25;5130803;27;20046;-65
2021/05/03 03:32:35;;;;;;;13.63;2.78;;;;;;;25.67;26.13;100837.91;5132673;27;20043;-65
2021/05/03 03:35:02;;;;;;;16.45;3.15;;;;;;;25.76;26.19;100834.81;5132135;27;20395;-65
2021/05/03 03:37:29;;;;;;;16.42;2.45;;;;;;;25.80;26.08;100831.00;5116965;27;20071;-65
2021/05/03 03:39:57;;;;;;;14.20;2.40;;;;;;;25.85;25.96;100833.50;5111510;28;20123;-65
2021/05/03 03:42:24;;;;;;;12.35;2.33;;;;;;;25.80;26.18;100840.94;5111889;28;20039;-65
2021/05/03 03:44:51;;;;;;;13.30;2.30;;;;;;;25.79;26.34;100839.22;5112885;28;20067;-64
2021/05/03 03:47:18;;;;;;;12.55;2.92;;;;;;;25.85;26.24;100841.63;5112177;28;20060;-65
2021/05/03 03:49:46;;;;;;;10.50;2.67;;;;;;;25.93;26.22;100841.28;5112031;28;20039;-65
2021/05/03 03:52:13;;;;;;;15.10;2.85;;;;;;;25.94;26.16;100843.91;5112259;28;20055;-65
2021/05/03 03:54:40;;;;;;;13.25;2.70;;;;;;;26.05;25.96;100843.41;5111618;28;20088;-65
2021/05/03 03:57:08;;;;;;;16.08;2.63;;;;;;;26.20;26.12;100851.66;5112134;28;20122;-65
2021/05/03 03:59:39;;;;;;;11.18;2.05;;;;;;;26.25;26.01;100854.22;5112271;28;20118;-64
2021/05/03 04:02:07;;;;;;;13.55;3.05;;;;;;;26.33;26.24;100851.97;5111334;28;20557;-65
2021/05/03 04:04:36;;;;;;;13.05;3.53;;;;;;;26.51;25.98;100850.25;5093746;28;20039;-64
2021/05/03 04:07:09;;;;;;;13.30;2.45;;;;;;;26.59;26.09;100853.44;5111291;28;20047;-64
2021/05/03 04:09:42;;;;;;;11.48;2.00;;;;;;;26.67;26.19;100848.50;5111323;28;20051;-65
2021/05/03 04:12:32;;;;;;;13.73;2.63;;;;;;;26.82;25.66;100846.88;5111631;28;20043;-65
2021/05/03 04:26:03;;;;;;;12.13;4.53;;;;;;;27.75;26.09;100872.78;5107836;28;20540;-65
2021/05/03 04:28:32;;;;;;;16.30;3.65;;;;;;;27.71;26.70;100901.91;5111082;28;20032;-65
2021/05/03 04:30:59;;;;;;;15.27;2.95;;;;;;;27.62;26.67;100926.84;5092770;28;20063;-65
2021/05/03 04:33:26;;;;;;;16.17;3.60;;;;;;;27.60;27.35;100942.31;5111144;28;20420;-64
2021/05/03 04:35:53;;;;;;;25.67;3.97;;;;;;;27.78;27.86;100945.88;5111467;28;20036;-65
2021/05/03 04:38:21;;;;;;;17.08;3.78;;;;;;;27.98;28.49;100951.13;5110769;28;20411;-65
2021/05/03 04:40:48;;;;;;;14.65;3.03;;;;;;;27.95;28.70;100967.59;5092415;28;20067;-66
2021/05/03 04:43:16;;;;;;;20.88;4.15;;;;;;;27.90;29.55;100988.66;5110601;28;20044;-67
2021/05/03 04:45:44;;;;;;;22.00;4.03;;;;;;;27.96;30.46;101012.75;5111520;28;20041;-65
2021/05/03 04:48:11;;;;;;;13.00;2.70;;;;;;;27.95;31.60;101002.88;5110303;28;20038;-65
2021/05/03 04:50:39;;;;;;;12.82;2.92;;;;;;;28.17;31.99;100991.78;5110774;28;20531;-65
2021/05/03 04:53:06;;;;;;;17.92;3.42;;;;;;;28.37;32.69;101005.16;5109777;28;20048;-65
2021/05/03 04:55:33;;;;;;;15.82;3.08;;;;;;;28.62;32.33;101007.41;5110697;28;20497;-65
2021/05/03 04:58:00;;;;;;;14.50;4.30;;;;;;;28.84;32.15;100996.25;5110720;28;20040;-65
2021/05/03 05:00:28;;;;;;;21.58;4.10;;;;;;;28.98;32.34;101001.78;5111214;28;20096;-65
2021/05/03 05:02:57;;;;;;;14.38;3.53;;;;;;;29.16;32.05;101011.59;5110767;28;20094;-65
2021/05/03 05:05:27;;;;;;;12.27;2.60;;;;;;;29.47;31.86;101004.44;5110687;28;20031;-65
2021/05/03 05:07:54;;;;;;;18.13;3.15;;;;;;;29.81;31.43;100992.38;5110031;28;20134;-65
2021/05/03 05:10:21;;;;;;;11.48;2.92;;;;;;;30.03;31.24;100993.75;5108411;28;20042;-65
2021/05/03 05:12:49;;;;;;;17.15;3.33;;;;;;;30.29;31.14;100985.78;5109383;28;20032;-65
2021/05/03 05:15:17;;;;;;;15.48;4.00;;;;;;;30.56;30.69;100981.34;5110805;28;20049;-65
2021/05/03 05:17:44;;;;;;;16.25;3.47;;;;;;;30.87;30.15;100975.66;5109851;28;20583;-65
2021/05/03 05:20:13;;;;;;;14.25;3.03;;;;;;;31.15;29.81;100982.94;5110144;28;20044;-65
2021/05/03 05:22:40;;;;;;;16.58;3.53;;;;;;;31.37;29.58;100989.69;5110744;28;20047;-65
2021/05/03 05:25:08;;;;;;;12.35;3.47;;;;;;;31.46;29.15;100983.59;5110268;28;20032;-64
2021/05/03 05:27:36;;;;;;;10.93;2.58;;;;;;;31.66;28.84;100980.41;5109974;28;20085;-65
2021/05/03 05:30:03;;;;;;;15.75;3.15;;;;;;;32.02;28.69;100986.06;5110708;28;20119;-65
2021/05/03 05:32:31;;;;;;;12.95;3.40;;;;;;;32.38;28.46;100974.38;5109117;28;20032;-65
2021/05/03 05:34:59;;;;;;;20.40;4.07;;;;;;;32.63;28.11;100957.06;5109690;28;20388;-65
2021/05/03 05:37:27;;;;;;;17.67;3.65;;;;;;;32.76;27.50;100959.78;5106417;28;20403;-65
2021/05/03 05:39:55;;;;;;;16.00;3.40;;;;;;;33.02;26.81;100969.69;5109489;28;20043;-65
2021/05/03 05:42:24;;;;;;;16.98;3.75;;;;;;;33.19;26.63;100966.59;5109512;28;20050;-65
2021/05/03 05:44:51;;;;;;;13.18;3.17;;;;;;;33.47;26.22;100967.25;5109352;28;20036;-66
2021/05/03 05:47:18;;;;;;;15.10;3.58;;;;;;;33.62;25.95;100968.78;5109208;28;20088;-65
2021/05/03 05:49:46;;;;;;;16.77;2.92;;;;;;;33.59;26.04;100963.56;5110470;28;20080;-65
2021/05/03 05:52:13;;;;;;;12.90;3.83;;;;;;;33.68;25.61;100968.28;5109370;28;20059;-65
2021/05/03 05:54:41;;;;;;;20.00;3.38;;;;;;;33.85;25.76;100964.28;5113238;28;20046;-65
2021/05/03 05:57:08;;;;;;;19.35;3.47;;;;;;;34.08;24.84;100970.69;5114205;28;20499;-65
2021/05/03 05:59:35;;;;;;;14.70;3.30;;;;;;;34.19;24.24;100977.09;5113926;28;20111;-65
2021/05/03 06:02:03;;;;;;;17.83;3.22;;;;;;;34.19;24.24;100989.91;5113770;28;20096;-64
2021/05/03 06:04:32;;;;;;;20.08;3.58;;;;;;;34.10;24.25;100982.41;5114097;28;20039;-65
2021/05/03 06:06:59;;;;;;;16.45;4.03;;;;;;;33.96;25.17;100980.75;5113949;28;20556;-66
2021/05/03 06:09:27;;;;;;;12.27;3.08;;;;;;;33.78;25.58;100998.63;5113435;28;20446;-66
2021/05/03 06:11:56;;;;;;;19.75;4.03;;;;;;;33.67;25.77;101007.66;5113302;28;20048;-65
2021/05/03 06:14:23;;;;;;;17.25;3.45;;;;;;;33.42;26.08;101013.25;5113626;28;20032;-65
2021/05/03 06:16:51;;;;;;;19.05;3.28;;;;;;;33.05;26.38;101021.47;5110330;28;20067;-66
2021/05/03 06:19:18;;;;;;;21.85;3.65;;;;;;;32.95;26.73;101017.63;5113024;27;20421;-65
2021/05/03 06:21:45;;;;;;;19.13;4.03;;;;;;;33.15;26.68;101036.19;5113257;28;20036;-65
2021/05/03 06:24:14;;;;;;;17.50;3.55;;;;;;;33.49;26.50;101029.09;5113605;28;20040;-65
2021/05/03 06:26:41;;;;;;;18.90;3.80;;;;;;;33.72;26.17;101032.00;5112309;28;20130;-65
2021/05/03 06:29:10;;;;;;;17.80;3.65;;;;;;;33.85;26.15;101041.88;5112181;28;20047;-65
2021/05/03 06:31:37;;;;;;;14.93;3.08;;;;;;;33.97;26.23;101019.00;5112848;28;20817;-65
2021/05/03 06:34:04;;;;;;;16.23;3.22;;;;;;;33.85;26.48;101030.06;5112853;28;20473;-65
2021/05/03 06:36:31;;;;;;;14.32;3.17;;;;;;;33.61;26.84;101044.59;5112464;28;20052;-65
2021/05/03 06:38:59;;;;;;;20.38;3.60;;;;;;;33.42;27.55;101040.63;5093087;28;20037;-65
2021/05/03 06:41:26;;;;;;;15.68;3.00;;;;;;;33.34;27.77;101035.75;5102621;28;20039;-65
2021/05/03 06:43:54;;;;;;;21.98;4.40;;;;;;;33.41;27.43;101037.00;5092876;28;20044;-66
2021/05/03 06:46:22;;;;;;;15.23;3.78;;;;;;;33.68;27.41;101045.00;5092393;28;20388;-65
2021/05/03 06:48:49;;;;;;;18.60;3.50;;;;;;;33.89;27.18;101046.13;5092832;28;20036;-66
2021/05/03 06:51:17;;;;;;;16.70;3.97;;;;;;;33.87;27.53;101055.47;5092135;28;20123;-68
2021/05/03 06:53:44;;;;;;;12.88;2.88;;;;;;;33.90;27.63;101056.09;5093031;28;20076;-65
2021/05/03 06:56:11;;;;;;;45.63;5.72;;;;;;;33.51;28.27;101059.13;5091760;28;20479;-65
2021/05/03 06:58:38;;;;;;;21.98;3.88;;;;;;;33.39;29.00;101066.41;5091963;28;20044;-65
2021/05/03 07:01:06;;;;;;;13.98;2.80;;;;;;;33.39;28.94;101069.13;5092326;28;20040;-65
2021/05/03 07:03:34;;;;;;;15.38;3.10;;;;;;;33.47;29.15;101085.00;5091121;28;20523;-66
2021/05/03 07:06:01;;;;;;;18.20;3.63;;;;;;;33.46;29.28;101078.63;5091744;28;20127;-65
2021/05/03 07:08:28;;;;;;;15.52;4.40;;;;;;;33.50;29.59;101084.75;5092152;28;20132;-65
2021/05/03 07:10:56;;;;;;;42.45;5.82;;;;;;;33.21;29.85;101086.94;5092268;28;20059;-66
2021/05/03 07:13:24;;;;;;;20.58;7.78;;;;;;;33.03;30.02;101093.69;5092947;28;20055;-65
2021/05/03 07:15:51;;;;;;;16.05;3.97;;;;;;;32.99;30.09;101084.84;5092055;28;20047;-65
2021/05/03 07:18:19;;;;;;;18.40;3.55;;;;;;;33.28;29.84;101076.41;5092613;28;20036;-65
2021/05/03 07:20:47;;;;;;;16.67;3.50;;;;;;;33.42;29.67;101073.50;5093035;28;20403;-66
2021/05/03 07:23:14;;;;;;;22.38;4.30;;;;;;;33.61;29.29;101069.25;5092875;28;20062;-66
2021/05/03 07:25:42;;;;;;;15.13;3.65;;;;;;;34.00;28.60;101068.09;5091969;28;20071;-66
2021/05/03 07:28:09;;;;;;;16.60;2.97;;;;;;;33.82;28.79;101066.78;5092519;28;20044;-65
2021/05/03 07:30:36;;;;;;;14.55;3.28;;;;;;;33.80;28.44;101060.56;5092652;28;20040;-65
2021/05/03 07:33:03;;;;;;;20.60;5.00;;;;;;;33.88;28.31;101059.94;5092432;28;20495;-66
2021/05/03 07:35:31;;;;;;;15.75;3.25;;;;;;;34.08;27.84;101059.28;5092483;28;20056;-65
2021/05/03 07:37:59;;;;;;;13.38;3.30;;;;;;;34.33;27.87;101063.75;5092589;28;20553;-66
2021/05/03 07:40:26;;;;;;;31.95;4.93;;;;;;;34.37;27.67;101048.81;5092274;28;20058;-66
2021/05/03 07:42:53;;;;;;;20.52;3.63;;;;;;;34.41;27.62;101044.81;5091767;28;20040;-66
2021/05/03 07:45:22;;;;;;;16.48;2.80;;;;;;;34.51;27.43;101058.66;5074130;28;20048;-66
2021/05/03 07:47:49;;;;;;;21.55;3.50;;;;;;;34.55;27.34;101041.84;5091907;28;20042;-66
2021/05/03 07:50:16;;;;;;;15.00;3.25;;;;;;;34.86;27.36;101050.34;5092921;28;20153;-66
2021/05/03 07:52:43;;;;;;;13.30;2.85;;;;;;;34.88;26.84;101051.97;5091281;28;20039;-66
2021/05/03 07:55:12;;;;;;;19.42;3.13;;;;;;;34.87;27.00;101049.34;5090735;28;20051;-66
2021/05/03 07:57:40;;;;;;;17.08;2.78;;;;;;;35.07;26.51;101043.09;5091355;28;20040;-66
2021/05/03 08:00:08;;;;;;;15.90;3.72;;;;;;;34.96;26.44;101037.63;5090582;28;20460;-66
2021/05/03 08:02:35;;;;;;;12.07;3.22;;;;;;;35.06;26.29;101033.13;5091068;28;20119;-66
2021/05/03 08:05:03;;;;;;;14.98;3.75;;;;;;;35.42;25.90;101035.59;5091291;28;20587;-67
2021/05/03 08:07:31;;;;;;;16.70;3.05;;;;;;;35.76;25.81;101030.88;5090697;28;20118;-66
2021/05/03 08:09:58;;;;;;;14.43;3.47;;;;;;;36.07;25.41;101022.72;5090819;28;20043;-66
2021/05/03 08:12:28;;;;;;;16.30;3.20;;;;;;;36.24;25.14;101014.75;5073053;28;20040;-66
2021/05/03 08:14:57;;;;;;;16.88;3.30;;;;;;;36.25;24.99;101027.50;5090288;28;20044;-65
2021/05/03 08:17:24;;;;;;;16.85;3.00;;;;;;;36.16;24.80;101022.81;5091578;28;20043;-66
2021/05/03 08:19:51;;;;;;;13.20;2.95;;;;;;;36.00;25.25;101010.50;5091112;28;20123;-66
2021/05/03 08:22:18;;;;;;;15.70;3.30;;;;;;;36.06;25.31;101015.47;5090446;28;20032;-66
2021/05/03 08:24:46;;;;;;;17.08;3.47;;;;;;;36.24;25.27;101020.28;5091717;28;20112;-66
2021/05/03 08:27:13;;;;;;;18.80;3.42;;;;;;;36.21;25.28;101015.06;5091221;28;20051;-66
2021/05/03 08:29:41;;;;;;;16.65;4.20;;;;;;;36.50;25.32;101014.34;5090522;28;20135;-66
2021/05/03 08:32:09;;;;;;;17.98;4.28;;;;;;;36.77;25.23;101009.13;5091028;28;20040;-66
2021/05/03 08:34:37;;;;;;;16.33;3.28;;;;;;;36.84;25.02;101012.22;5090974;28;20127;-65
2021/05/03 08:37:04;;;;;;;16.02;3.38;;;;;;;36.58;25.01;101004.38;5091186;28;20040;-66
2021/05/03 08:39:31;;;;;;;18.23;4.28;;;;;;;36.71;25.31;101007.81;5089063;28;20052;-66
2021/05/03 08:42:00;;;;;;;48.17;4.55;;;;;;;36.53;25.96;101009.44;5100656;28;20043;-66
2021/05/03 08:44:29;;;;;;;21.80;4.35;;;;;;;36.32;26.09;101012.22;5110534;28;20067;-66
2021/05/03 08:46:58;;;;;;;16.83;3.58;;;;;;;35.90;26.35;101016.84;5103885;27;20832;-65
2021/05/03 08:49:32;;;;;;;20.42;4.05;;;;;;;35.12;26.96;101016.13;5103612;28;20034;-65
2021/05/03 08:52:07;;;;;;;19.45;3.67;;;;;;;34.87;27.60;101025.53;5110445;28;20044;-65
2021/05/03 08:54:38;;;;;;;16.23;3.97;;;;;;;34.91;27.27;101018.81;5110588;28;20437;-65
2021/05/03 08:57:06;;;;;;;14.40;3.03;;;;;;;34.63;27.40;101022.03;5110377;28;20100;-65
2021/05/03 08:59:35;;;;;;;20.27;3.80;;;;;;;34.50;27.36;101029.50;5109505;28;20088;-66
2021/05/03 09:02:05;;;;;;;20.60;4.03;;;;;;;34.58;27.09;101018.78;5109808;28;20134;-66
2021/05/03 09:04:33;;;;;;;13.88;3.22;;;;;;;34.87;26.96;101030.16;5087078;28;20753;-65
2021/05/03 09:07:11;;;;;;;16.10;3.90;;;;;;;35.04;26.81;101030.53;5091026;28;20532;-65
2021/05/03 09:09:40;;;;;;;13.90;3.22;;;;;;;35.22;26.06;101038.25;5109066;28;20131;-65
2021/05/03 09:12:11;;;;;;;13.52;3.40;;;;;;;34.98;26.56;101049.38;5109621;28;20475;-65
2021/05/03 09:14:49;;;;;;;18.90;3.85;;;;;;;34.96;26.23;101041.25;5110553;28;20048;-66
2021/05/03 09:17:27;;;;;;;17.15;3.83;;;;;;;35.02;26.18;101045.38;5110609;28;20059;-66
2021/05/03 09:19:57;;;;;;;21.45;4.03;;;;;;;35.34;25.70;101046.34;5109687;28;20563;-66
2021/05/03 09:22:32;;;;;;;15.82;3.00;;;;;;;35.06;25.62;101036.75;5109923;28;20514;-66
2021/05/03 09:25:17;;;;;;;15.35;3.05;;;;;;;34.97;25.51;101047.63;5110433;28;20032;-65
2021/05/03 09:27:45;;;;;;;18.02;4.05;;;;;;;34.86;25.72;101034.75;5111711;28;20093;-65
2021/05/03 09:30:13;;;;;;;18.45;3.58;;;;;;;34.73;26.01;101028.53;5114493;28;20046;-66
2021/05/03 09:32:41;;;;;;;30.35;4.78;;;;;;;34.71;26.44;101022.31;5111239;27;20040;-66
2021/05/03 09:35:09;;;;;;;13.48;3.75;;;;;;;34.70;26.64;101028.75;5109323;28;20086;-66
2021/05/03 09:37:39;;;;;;;15.93;3.35;;;;;;;34.98;26.43;101021.94;5112743;28;20085;-65
2021/05/03 09:40:09;;;;;;;15.00;3.70;;;;;;;35.34;26.08;101024.38;5112711;28;20036;-66
2021/05/03 09:42:54;;;;;;;16.98;4.10;;;;;;;35.23;25.91;101018.03;5113925;28;20074;-66
2021/05/03 09:45:24;;;;;;;13.80;2.97;;;;;;;35.04;26.10;101016.81;5114309;28;20036;-66
2021/05/03 09:47:54;;;;;;;15.70;3.80;;;;;;;35.21;25.93;101017.28;5115210;28;20040;-66
2021/05/03 09:50:23;;;;;;;16.33;3.65;;;;;;;35.39;24.92;101024.84;5113986;28;20107;-66
2021/05/03 09:53:08;;;;;;;18.75;3.72;;;;;;;35.51;24.47;101023.81;5113764;28;20127;-66
2021/05/03 09:55:39;;;;;;;19.48;4.22;;;;;;;35.29;24.66;101020.28;5114062;28;20043;-66
2021/05/03 09:58:17;;;;;;;12.35;3.05;;;;;;;35.33;24.76;101022.63;5114359;28;20047;-66
2021/05/03 10:00:45;;;;;;;17.08;3.15;;;;;;;34.73;25.08;101012.94;5111668;28;20122;-66
2021/05/03 10:03:31;;;;;;;18.30;3.38;;;;;;;34.46;26.10;101015.16;5114568;28;20050;-66
2021/05/03 10:05:59;;;;;;;13.07;3.92;;;;;;;34.42;26.79;101015.50;5113832;28;20122;-65
2021/05/03 10:08:27;;;;;;;16.73;4.57;;;;;;;34.21;26.98;101020.78;5114098;28;20052;-65
2021/05/03 10:10:58;;;;;;;16.88;3.75;;;;;;;33.89;27.70;101023.31;5114295;28;20122;-66
2021/05/03 10:13:26;;;;;;;14.57;3.90;;;;;;;33.65;28.78;101022.47;5114228;28;20031;-66
2021/05/03 10:15:56;;;;;;;18.10;3.92;;;;;;;33.75;28.56;101020.78;5113569;28;20550;-65
2021/05/03 10:18:25;;;;;;;15.35;3.17;;;;;;;33.71;27.84;101022.91;5112813;28;20032;-66
2021/05/03 10:20:56;;;;;;;18.77;3.45;;;;;;;33.81;27.31;101012.09;5113161;28;20092;-65
2021/05/03 10:23:25;;;;;;;14.70;3.00;;;;;;;33.92;26.87;101012.16;5113728;28;20247;-66
2021/05/03 10:25:57;;;;;;;16.17;3.13;;;;;;;34.28;26.34;101008.38;5113663;28;20055;-66
2021/05/03 10:28:24;;;;;;;13.60;3.38;;;;;;;34.56;25.92;101013.41;5112929;28;20115;-65
2021/05/03 10:30:55;;;;;;;17.20;3.95;;;;;;;34.81;25.62;101008.69;5113300;28;20073;-65
2021/05/03 10:33:35;;;;;;;15.68;4.28;;;;;;;35.00;24.96;101003.44;5113719;28;20119;-65
2021/05/03 10:36:05;;;;;;;23.65;4.13;;;;;;;34.82;25.15;100991.22;5112907;28;20495;-65
2021/05/03 10:38:39;;;;;;;11.93;3.35;;;;;;;35.13;24.86;100993.16;5111286;28;20039;-65
2021/05/03 10:41:25;;;;;;;;;;;;;;;35.35;24.42;100986.78;5109943;27;20487;-66
2021/05/03 10:44:09;;;;;;;18.30;4.13;;;;;;;35.44;24.80;100988.78;5094765;28;20342;-67
2021/05/03 10:49:35;;;;;;;19.17;3.28;;;;;;;35.58;24.69;100977.44;5097442;28;19926;-66
2021/05/03 10:52:05;;;;;;;18.27;4.18;;;;;;;35.55;25.00;100989.59;5112591;28;20039;-65
2021/05/03 10:54:46;;;;;;;16.73;4.07;;;;;;;35.68;25.17;100981.16;5113619;28;20062;-65
2021/05/03 10:57:32;;;;;;;22.02;3.67;;;;;;;35.63;25.94;100980.69;5113222;28;20040;-65
2021/05/03 11:00:00;;;;;;;19.15;3.65;;;;;;;35.77;25.57;100987.78;5101092;28;20122;-65
2021/05/03 11:02:44;;;;;;;14.50;3.72;;;;;;;35.69;25.63;100980.19;5096217;27;20046;-65
2021/05/03 11:05:18;;;;;;;20.25;3.53;;;;;;;35.54;26.06;100985.09;5110546;28;20050;-65
2021/05/03 11:08:18;;;;;;;18.30;4.05;;;;;;;35.77;25.30;100972.19;5110901;28;20070;-65
2021/05/03 11:11:21;;;;;;;16.17;3.78;;;;;;;35.57;25.64;100978.47;5110828;28;20126;-66
2021/05/03 11:14:00;;;;;;;13.70;3.53;;;;;;;35.89;25.27;100967.47;5105843;28;20252;-66
2021/05/03 11:16:47;;;;;;;17.10;3.50;;;;;;;36.22;24.68;100956.28;5109315;28;20412;-66
2021/05/03 11:20:03;;;;;;;21.23;3.67;;;;;;;36.43;24.24;100964.47;5108613;28;20050;-65
2021/05/03 11:22:48;;;;;;;14.15;3.78;;;;;;;36.52;24.13;100965.53;5108816;28;20036;-67
2021/05/03 11:25:21;;;;;;;17.80;3.40;;;;;;;36.47;24.17;100960.47;5109645;28;20186;-66
2021/05/03 11:27:58;;;;;;;19.30;3.38;;;;;;;36.41;23.85;100958.25;5109966;28;20036;-66
2021/05/03 11:30:30;;;;;;;16.80;3.15;;;;;;;36.39;24.07;100963.03;5109142;28;20032;-65
2021/05/03 11:33:01;;;;;;;21.27;3.93;;;;;;;36.79;23.71;100953.94;5108137;28;20044;-65
2021/05/03 11:35:35;;;;;;;16.30;3.30;;;;;;;37.07;23.71;100959.53;5108074;28;20039;-65
2021/05/03 11:38:06;;;;;;;11.50;3.58;;;;;;;37.13;23.52;100965.53;5103002;28;20142;-66
2021/05/03 11:40:59;;;;;;;15.77;3.53;;;;;;;36.94;23.33;100958.94;5111325;28;20502;-66